sensor_id;sensor_type;location;lat;lon;timestamp;temperature;humidity
79698;SHT31;69168;42.708;23.286;2024-01-10T00:01:31;-3.03;67.70
79698;SHT31;69168;42.708;23.286;2024-01-10T00:03:57;-3.06;68.39
79698;SHT31;69168;42.708;23.286;2024-01-10T00:06:23;-3.10;68.02
79698;SHT31;69168;42.708;23.286;2024-01-10T00:08:49;-2.79;66.99
79698;SHT31;69168;42.708;23.286;2024-01-10T00:11:14;-2.82;68.44
79698;SHT31;69168;42.708;23.286;2024-01-10T00:13:40;-2.97;68.39
79698;SHT31;69168;42.708;23.286;2024-01-10T00:16:06;-3.07;68.80
79698;SHT31;69168;42.708;23.286;2024-01-10T00:18:31;-3.12;69.05
79698;SHT31;69168;42.708;23.286;2024-01-10T00:20:57;-3.02;68.72
79698;SHT31;69168;42.708;23.286;2024-01-10T00:23:23;-3.02;69.21
79698;SHT31;69168;42.708;23.286;2024-01-10T00:25:49;-3.00;69.81
79698;SHT31;69168;42.708;23.286;2024-01-10T00:28:15;-3.05;69.00
79698;SHT31;69168;42.708;23.286;2024-01-10T00:30:44;-3.00;68.67
79698;SHT31;69168;42.708;23.286;2024-01-10T00:33:10;-2.96;68.50
79698;SHT31;69168;42.708;23.286;2024-01-10T00:35:36;-2.96;68.85
79698;SHT31;69168;42.708;23.286;2024-01-10T00:38:02;-3.09;69.36
79698;SHT31;69168;42.708;23.286;2024-01-10T00:40:28;-3.02;68.40
79698;SHT31;69168;42.708;23.286;2024-01-10T00:42:53;-3.02;68.16
79698;SHT31;69168;42.708;23.286;2024-01-10T00:45:19;-3.03;68.36
79698;SHT31;69168;42.708;23.286;2024-01-10T00:47:45;-2.95;69.07
79698;SHT31;69168;42.708;23.286;2024-01-10T00:50:11;-2.93;68.36
79698;SHT31;69168;42.708;23.286;2024-01-10T00:52:36;-3.02;68.94
79698;SHT31;69168;42.708;23.286;2024-01-10T00:55:02;-2.92;68.98
79698;SHT31;69168;42.708;23.286;2024-01-10T00:57:28;-2.91;69.02
79698;SHT31;69168;42.708;23.286;2024-01-10T00:59:53;-2.93;68.44
79698;SHT31;69168;42.708;23.286;2024-01-10T01:02:19;-2.84;67.95
79698;SHT31;69168;42.708;23.286;2024-01-10T01:04:44;-2.82;68.24
79698;SHT31;69168;42.708;23.286;2024-01-10T01:07:10;-2.86;67.70
79698;SHT31;69168;42.708;23.286;2024-01-10T01:09:35;-2.79;67.56
79698;SHT31;69168;42.708;23.286;2024-01-10T01:12:01;-2.81;67.53
79698;SHT31;69168;42.708;23.286;2024-01-10T01:14:26;-2.82;67.53
79698;SHT31;69168;42.708;23.286;2024-01-10T01:16:52;-2.99;68.94
79698;SHT31;69168;42.708;23.286;2024-01-10T01:19:17;-3.10;67.88
79698;SHT31;69168;42.708;23.286;2024-01-10T01:21:43;-3.03;67.93
79698;SHT31;69168;42.708;23.286;2024-01-10T01:24:09;-3.27;68.67
79698;SHT31;69168;42.708;23.286;2024-01-10T01:26:34;-3.27;69.52
79698;SHT31;69168;42.708;23.286;2024-01-10T01:29:00;-3.39;68.15
79698;SHT31;69168;42.708;23.286;2024-01-10T01:31:26;-3.54;68.01
79698;SHT31;69168;42.708;23.286;2024-01-10T01:33:51;-3.43;69.23
79698;SHT31;69168;42.708;23.286;2024-01-10T01:36:17;-3.50;68.94
79698;SHT31;69168;42.708;23.286;2024-01-10T01:38:43;-3.54;68.69
79698;SHT31;69168;42.708;23.286;2024-01-10T01:41:08;-3.57;68.53
79698;SHT31;69168;42.708;23.286;2024-01-10T01:43:34;-3.57;68.90
79698;SHT31;69168;42.708;23.286;2024-01-10T01:46:01;-3.54;70.75
79698;SHT31;69168;42.708;23.286;2024-01-10T01:48:27;-3.52;69.56
79698;SHT31;69168;42.708;23.286;2024-01-10T01:51:01;-3.50;70.37
79698;SHT31;69168;42.708;23.286;2024-01-10T01:53:27;-3.44;69.45
79698;SHT31;69168;42.708;23.286;2024-01-10T01:55:57;-3.37;69.60
79698;SHT31;69168;42.708;23.286;2024-01-10T01:58:25;-3.27;69.40
79698;SHT31;69168;42.708;23.286;2024-01-10T02:00:51;-3.16;68.58
79698;SHT31;69168;42.708;23.286;2024-01-10T02:03:16;-3.27;68.02
79698;SHT31;69168;42.708;23.286;2024-01-10T02:05:42;-3.27;68.08
79698;SHT31;69168;42.708;23.286;2024-01-10T02:08:08;-3.40;67.54
79698;SHT31;69168;42.708;23.286;2024-01-10T02:10:34;-3.34;67.95
79698;SHT31;69168;42.708;23.286;2024-01-10T02:13:00;-3.20;68.15
79698;SHT31;69168;42.708;23.286;2024-01-10T02:15:26;-3.24;67.51
79698;SHT31;69168;42.708;23.286;2024-01-10T02:17:52;-3.19;68.75
79698;SHT31;69168;42.708;23.286;2024-01-10T02:20:17;-3.19;68.15
79698;SHT31;69168;42.708;23.286;2024-01-10T02:22:44;-3.27;68.75
79698;SHT31;69168;42.708;23.286;2024-01-10T02:25:10;-3.39;68.40
79698;SHT31;69168;42.708;23.286;2024-01-10T02:27:36;-3.30;66.99
79698;SHT31;69168;42.708;23.286;2024-01-10T02:30:04;-3.47;65.99
79698;SHT31;69168;42.708;23.286;2024-01-10T02:32:30;-3.36;66.96
79698;SHT31;69168;42.708;23.286;2024-01-10T02:34:55;-3.36;67.77
79698;SHT31;69168;42.708;23.286;2024-01-10T02:37:21;-3.39;67.25
79698;SHT31;69168;42.708;23.286;2024-01-10T02:39:46;-3.52;66.19
79698;SHT31;69168;42.708;23.286;2024-01-10T02:42:12;-3.60;67.19
79698;SHT31;69168;42.708;23.286;2024-01-10T02:44:37;-3.64;66.84
79698;SHT31;69168;42.708;23.286;2024-01-10T02:47:04;-3.72;66.23
79698;SHT31;69168;42.708;23.286;2024-01-10T02:49:29;-3.61;67.01
79698;SHT31;69168;42.708;23.286;2024-01-10T02:51:55;-3.64;67.11
79698;SHT31;69168;42.708;23.286;2024-01-10T02:54:20;-3.61;68.00
79698;SHT31;69168;42.708;23.286;2024-01-10T02:56:46;-3.54;68.57
79698;SHT31;69168;42.708;23.286;2024-01-10T02:59:11;-3.44;67.59
79698;SHT31;69168;42.708;23.286;2024-01-10T03:01:37;-3.40;67.96
79698;SHT31;69168;42.708;23.286;2024-01-10T03:04:03;-3.36;67.55
79698;SHT31;69168;42.708;23.286;2024-01-10T03:06:28;-3.43;66.84
79698;SHT31;69168;42.708;23.286;2024-01-10T03:08:54;-3.44;67.37
79698;SHT31;69168;42.708;23.286;2024-01-10T03:11:20;-3.36;67.53
79698;SHT31;69168;42.708;23.286;2024-01-10T03:13:46;-3.48;66.78
79698;SHT31;69168;42.708;23.286;2024-01-10T03:16:13;-3.43;66.75
79698;SHT31;69168;42.708;23.286;2024-01-10T03:18:38;-3.39;66.97
79698;SHT31;69168;42.708;23.286;2024-01-10T03:21:04;-3.41;66.46
79698;SHT31;69168;42.708;23.286;2024-01-10T03:23:30;-3.37;67.37
79698;SHT31;69168;42.708;23.286;2024-01-10T03:25:56;-3.41;66.14
79698;SHT31;69168;42.708;23.286;2024-01-10T03:28:22;-3.46;65.87
79698;SHT31;69168;42.708;23.286;2024-01-10T03:30:48;-3.39;66.63
79698;SHT31;69168;42.708;23.286;2024-01-10T03:33:13;-3.39;66.64
79698;SHT31;69168;42.708;23.286;2024-01-10T03:35:39;-3.39;66.98
79698;SHT31;69168;42.708;23.286;2024-01-10T03:38:05;-3.40;67.66
79698;SHT31;69168;42.708;23.286;2024-01-10T03:40:30;-3.36;67.49
79698;SHT31;69168;42.708;23.286;2024-01-10T03:42:56;-3.39;67.27
79698;SHT31;69168;42.708;23.286;2024-01-10T03:45:21;-3.40;66.28
79698;SHT31;69168;42.708;23.286;2024-01-10T03:47:49;-3.41;66.71
79698;SHT31;69168;42.708;23.286;2024-01-10T03:50:20;-3.48;65.04
79698;SHT31;69168;42.708;23.286;2024-01-10T03:52:46;-3.65;64.61
79698;SHT31;69168;42.708;23.286;2024-01-10T03:55:12;-3.77;65.03
79698;SHT31;69168;42.708;23.286;2024-01-10T03:57:39;-3.88;65.24
79698;SHT31;69168;42.708;23.286;2024-01-10T04:00:05;-3.62;65.89
79698;SHT31;69168;42.708;23.286;2024-01-10T04:02:32;-3.65;65.45
79698;SHT31;69168;42.708;23.286;2024-01-10T04:04:57;-3.52;65.00
79698;SHT31;69168;42.708;23.286;2024-01-10T04:07:23;-3.55;65.65
79698;SHT31;69168;42.708;23.286;2024-01-10T04:09:48;-3.50;65.64
79698;SHT31;69168;42.708;23.286;2024-01-10T04:12:14;-3.51;65.58
79698;SHT31;69168;42.708;23.286;2024-01-10T04:14:45;-3.46;65.60
79698;SHT31;69168;42.708;23.286;2024-01-10T04:17:11;-3.61;65.85
79698;SHT31;69168;42.708;23.286;2024-01-10T04:19:39;-3.60;66.78
79698;SHT31;69168;42.708;23.286;2024-01-10T04:22:08;-3.51;65.07
79698;SHT31;69168;42.708;23.286;2024-01-10T04:24:36;-3.26;64.69
79698;SHT31;69168;42.708;23.286;2024-01-10T04:27:02;-3.23;65.38
79698;SHT31;69168;42.708;23.286;2024-01-10T04:29:28;-3.32;64.87
79698;SHT31;69168;42.708;23.286;2024-01-10T04:31:54;-3.41;65.32
79698;SHT31;69168;42.708;23.286;2024-01-10T04:34:19;-3.54;64.94
79698;SHT31;69168;42.708;23.286;2024-01-10T04:36:45;-3.67;65.30
79698;SHT31;69168;42.708;23.286;2024-01-10T04:39:13;-3.50;63.92
79698;SHT31;69168;42.708;23.286;2024-01-10T04:41:41;-3.54;65.36
79698;SHT31;69168;42.708;23.286;2024-01-10T04:44:07;-3.60;65.77
79698;SHT31;69168;42.708;23.286;2024-01-10T04:46:35;-3.69;65.92
79698;SHT31;69168;42.708;23.286;2024-01-10T04:49:01;-3.71;65.99
79698;SHT31;69168;42.708;23.286;2024-01-10T04:51:26;-3.68;65.32
79698;SHT31;69168;42.708;23.286;2024-01-10T04:53:55;-3.65;65.35
79698;SHT31;69168;42.708;23.286;2024-01-10T04:56:24;-3.52;64.74
79698;SHT31;69168;42.708;23.286;2024-01-10T04:58:49;-3.69;65.38
79698;SHT31;69168;42.708;23.286;2024-01-10T05:01:15;-3.71;67.76
79698;SHT31;69168;42.708;23.286;2024-01-10T05:03:46;-3.65;65.95
79698;SHT31;69168;42.708;23.286;2024-01-10T05:06:11;-3.69;66.15
79698;SHT31;69168;42.708;23.286;2024-01-10T05:08:37;-3.65;64.90
79698;SHT31;69168;42.708;23.286;2024-01-10T05:11:03;-3.68;64.72
79698;SHT31;69168;42.708;23.286;2024-01-10T05:13:29;-3.67;64.55
79698;SHT31;69168;42.708;23.286;2024-01-10T05:15:57;-3.68;64.97
79698;SHT31;69168;42.708;23.286;2024-01-10T05:18:25;-3.79;63.46
79698;SHT31;69168;42.708;23.286;2024-01-10T05:20:51;-3.75;64.94
79698;SHT31;69168;42.708;23.286;2024-01-10T05:23:16;-3.62;63.90
79698;SHT31;69168;42.708;23.286;2024-01-10T05:25:42;-3.55;62.16
79698;SHT31;69168;42.708;23.286;2024-01-10T05:28:08;-3.33;61.20
79698;SHT31;69168;42.708;23.286;2024-01-10T05:30:33;-3.50;60.74
79698;SHT31;69168;42.708;23.286;2024-01-10T05:32:59;-3.47;60.08
79698;SHT31;69168;42.708;23.286;2024-01-10T05:35:24;-3.44;62.03
79698;SHT31;69168;42.708;23.286;2024-01-10T05:37:56;-3.43;61.31
79698;SHT31;69168;42.708;23.286;2024-01-10T05:40:23;-3.33;60.52
79698;SHT31;69168;42.708;23.286;2024-01-10T05:42:49;-3.27;62.10
79698;SHT31;69168;42.708;23.286;2024-01-10T05:45:15;-3.19;60.62
79698;SHT31;69168;42.708;23.286;2024-01-10T05:47:43;-3.13;61.00
79698;SHT31;69168;42.708;23.286;2024-01-10T05:50:09;-3.16;60.47
79698;SHT31;69168;42.708;23.286;2024-01-10T05:52:34;-3.20;60.32
79698;SHT31;69168;42.708;23.286;2024-01-10T05:55:00;-3.10;59.84
79698;SHT31;69168;42.708;23.286;2024-01-10T05:57:30;-3.26;59.59
79698;SHT31;69168;42.708;23.286;2024-01-10T06:00:01;-3.40;61.25
79698;SHT31;69168;42.708;23.286;2024-01-10T06:02:28;-3.40;59.80
79698;SHT31;69168;42.708;23.286;2024-01-10T06:04:54;-3.36;59.91
79698;SHT31;69168;42.708;23.286;2024-01-10T06:07:19;-3.41;61.23
79698;SHT31;69168;42.708;23.286;2024-01-10T06:09:46;-3.50;61.48
79698;SHT31;69168;42.708;23.286;2024-01-10T06:12:12;-3.40;62.52
79698;SHT31;69168;42.708;23.286;2024-01-10T06:14:38;-3.32;61.97
79698;SHT31;69168;42.708;23.286;2024-01-10T06:17:03;-3.41;61.01
79698;SHT31;69168;42.708;23.286;2024-01-10T06:19:34;-3.51;60.96
79698;SHT31;69168;42.708;23.286;2024-01-10T06:22:02;-3.51;61.95
79698;SHT31;69168;42.708;23.286;2024-01-10T06:24:28;-3.62;60.95
79698;SHT31;69168;42.708;23.286;2024-01-10T06:26:56;-3.52;60.68
79698;SHT31;69168;42.708;23.286;2024-01-10T06:29:22;-3.47;59.98
79698;SHT31;69168;42.708;23.286;2024-01-10T06:31:50;-3.52;61.50
79698;SHT31;69168;42.708;23.286;2024-01-10T06:34:16;-3.60;62.35
79698;SHT31;69168;42.708;23.286;2024-01-10T06:36:41;-3.60;61.55
79698;SHT31;69168;42.708;23.286;2024-01-10T06:39:09;-3.52;60.82
79698;SHT31;69168;42.708;23.286;2024-01-10T06:41:38;-3.61;60.25
79698;SHT31;69168;42.708;23.286;2024-01-10T06:44:09;-3.55;60.44
79698;SHT31;69168;42.708;23.286;2024-01-10T06:46:35;-3.52;61.06
79698;SHT31;69168;42.708;23.286;2024-01-10T06:49:01;-3.48;60.51
79698;SHT31;69168;42.708;23.286;2024-01-10T06:51:27;-3.46;61.29
79698;SHT31;69168;42.708;23.286;2024-01-10T06:53:52;-3.27;59.62
79698;SHT31;69168;42.708;23.286;2024-01-10T06:56:18;-3.23;60.92
79698;SHT31;69168;42.708;23.286;2024-01-10T06:58:47;-3.16;60.63
79698;SHT31;69168;42.708;23.286;2024-01-10T07:01:13;-3.10;58.90
79698;SHT31;69168;42.708;23.286;2024-01-10T07:03:39;-3.07;57.91
79698;SHT31;69168;42.708;23.286;2024-01-10T07:06:05;-3.02;59.46
79698;SHT31;69168;42.708;23.286;2024-01-10T07:08:33;-3.02;61.16
79698;SHT31;69168;42.708;23.286;2024-01-10T07:11:01;-2.97;59.71
79698;SHT31;69168;42.708;23.286;2024-01-10T07:13:27;-2.99;59.32
79698;SHT31;69168;42.708;23.286;2024-01-10T07:15:53;-2.82;58.08
79698;SHT31;69168;42.708;23.286;2024-01-10T07:18:19;-2.95;58.85
79698;SHT31;69168;42.708;23.286;2024-01-10T07:20:44;-2.92;58.51
79698;SHT31;69168;42.708;23.286;2024-01-10T07:23:10;-2.64;54.28
79698;SHT31;69168;42.708;23.286;2024-01-10T07:25:36;-2.88;55.81
79698;SHT31;69168;42.708;23.286;2024-01-10T07:28:03;-3.00;57.35
79698;SHT31;69168;42.708;23.286;2024-01-10T07:30:31;-3.03;59.45
79698;SHT31;69168;42.708;23.286;2024-01-10T07:32:58;-2.82;60.83
79698;SHT31;69168;42.708;23.286;2024-01-10T07:35:25;-2.84;60.02
79698;SHT31;69168;42.708;23.286;2024-01-10T07:37:53;-2.81;57.41
79698;SHT31;69168;42.708;23.286;2024-01-10T07:40:19;-2.68;56.25
79698;SHT31;69168;42.708;23.286;2024-01-10T07:42:44;-2.81;58.39
79698;SHT31;69168;42.708;23.286;2024-01-10T07:45:10;-2.84;58.59
79698;SHT31;69168;42.708;23.286;2024-01-10T07:47:37;-2.78;58.10
79698;SHT31;69168;42.708;23.286;2024-01-10T07:50:05;-2.86;57.24
79698;SHT31;69168;42.708;23.286;2024-01-10T07:52:31;-2.74;56.48
79698;SHT31;69168;42.708;23.286;2024-01-10T07:54:57;-3.00;54.82
79698;SHT31;69168;42.708;23.286;2024-01-10T07:57:23;-2.91;54.62
79698;SHT31;69168;42.708;23.286;2024-01-10T07:59:48;-2.85;55.05
79698;SHT31;69168;42.708;23.286;2024-01-10T08:02:14;-2.82;55.50
79698;SHT31;69168;42.708;23.286;2024-01-10T08:04:39;-2.93;56.03
79698;SHT31;69168;42.708;23.286;2024-01-10T08:07:05;-3.03;57.25
79698;SHT31;69168;42.708;23.286;2024-01-10T08:09:31;-2.95;54.64
79698;SHT31;69168;42.708;23.286;2024-01-10T08:11:56;-2.88;55.55
79698;SHT31;69168;42.708;23.286;2024-01-10T08:14:22;-2.99;54.76
79698;SHT31;69168;42.708;23.286;2024-01-10T08:16:48;-2.96;54.95
79698;SHT31;69168;42.708;23.286;2024-01-10T08:19:14;-2.78;53.21
79698;SHT31;69168;42.708;23.286;2024-01-10T08:21:42;-2.67;55.35
79698;SHT31;69168;42.708;23.286;2024-01-10T08:24:10;-2.62;55.59
79698;SHT31;69168;42.708;23.286;2024-01-10T08:26:36;-2.74;55.19
79698;SHT31;69168;42.708;23.286;2024-01-10T08:29:03;-2.79;56.53
79698;SHT31;69168;42.708;23.286;2024-01-10T08:31:29;-2.84;54.85
79698;SHT31;69168;42.708;23.286;2024-01-10T08:33:55;-2.89;56.21
79698;SHT31;69168;42.708;23.286;2024-01-10T08:36:23;-3.00;54.52
79698;SHT31;69168;42.708;23.286;2024-01-10T08:38:50;-3.00;55.55
79698;SHT31;69168;42.708;23.286;2024-01-10T08:41:17;-2.78;55.69
79698;SHT31;69168;42.708;23.286;2024-01-10T08:43:42;-2.57;56.08
79698;SHT31;69168;42.708;23.286;2024-01-10T08:46:09;-2.30;55.73
79698;SHT31;69168;42.708;23.286;2024-01-10T08:48:35;-2.36;55.29
79698;SHT31;69168;42.708;23.286;2024-01-10T08:51:02;-2.25;53.69
79698;SHT31;69168;42.708;23.286;2024-01-10T08:53:27;-2.05;53.41
79698;SHT31;69168;42.708;23.286;2024-01-10T08:55:53;-2.18;53.73
79698;SHT31;69168;42.708;23.286;2024-01-10T08:58:19;-2.09;57.08
79698;SHT31;69168;42.708;23.286;2024-01-10T09:00:44;-1.89;56.32
79698;SHT31;69168;42.708;23.286;2024-01-10T09:03:13;-2.02;53.28
79698;SHT31;69168;42.708;23.286;2024-01-10T09:05:38;-2.13;54.55
79698;SHT31;69168;42.708;23.286;2024-01-10T09:08:07;-2.01;54.92
79698;SHT31;69168;42.708;23.286;2024-01-10T09:10:32;-1.85;56.18
79698;SHT31;69168;42.708;23.286;2024-01-10T09:12:58;-1.78;56.24
79698;SHT31;69168;42.708;23.286;2024-01-10T09:15:24;-1.51;54.44
79698;SHT31;69168;42.708;23.286;2024-01-10T09:17:53;-1.42;55.87
79698;SHT31;69168;42.708;23.286;2024-01-10T09:20:18;-1.27;54.98
79698;SHT31;69168;42.708;23.286;2024-01-10T09:22:45;-1.09;52.97
79698;SHT31;69168;42.708;23.286;2024-01-10T09:25:11;-1.19;52.85
79698;SHT31;69168;42.708;23.286;2024-01-10T09:27:39;-1.10;53.89
79698;SHT31;69168;42.708;23.286;2024-01-10T09:30:09;-0.95;53.29
79698;SHT31;69168;42.708;23.286;2024-01-10T09:32:38;-0.87;53.78
79698;SHT31;69168;42.708;23.286;2024-01-10T09:35:04;-0.56;51.77
79698;SHT31;69168;42.708;23.286;2024-01-10T09:37:30;-0.65;53.10
79698;SHT31;69168;42.708;23.286;2024-01-10T09:39:56;-0.47;51.34
79698;SHT31;69168;42.708;23.286;2024-01-10T09:42:22;-0.25;51.23
79698;SHT31;69168;42.708;23.286;2024-01-10T09:44:51;-0.30;48.24
79698;SHT31;69168;42.708;23.286;2024-01-10T09:47:19;-0.15;48.25
79698;SHT31;69168;42.708;23.286;2024-01-10T09:49:45;-0.10;47.18
79698;SHT31;69168;42.708;23.286;2024-01-10T09:52:27;0.11;49.01
79698;SHT31;69168;42.708;23.286;2024-01-10T09:55:00;0.16;49.28
79698;SHT31;69168;42.708;23.286;2024-01-10T09:57:26;0.18;49.57
79698;SHT31;69168;42.708;23.286;2024-01-10T09:59:52;0.39;48.87
79698;SHT31;69168;42.708;23.286;2024-01-10T10:02:20;0.70;47.88
79698;SHT31;69168;42.708;23.286;2024-01-10T10:05:09;0.70;48.33
79698;SHT31;69168;42.708;23.286;2024-01-10T10:10:10;0.84;47.50
79698;SHT31;69168;42.708;23.286;2024-01-10T10:12:48;0.78;44.88
79698;SHT31;69168;42.708;23.286;2024-01-10T10:15:18;1.02;46.89
79698;SHT31;69168;42.708;23.286;2024-01-10T10:17:45;1.49;47.23
79698;SHT31;69168;42.708;23.286;2024-01-10T10:20:19;1.53;44.63
79698;SHT31;69168;42.708;23.286;2024-01-10T10:23:06;1.64;46.45
79698;SHT31;69168;42.708;23.286;2024-01-10T10:25:50;1.81;46.13
79698;SHT31;69168;42.708;23.286;2024-01-10T10:28:18;1.78;43.74
79698;SHT31;69168;42.708;23.286;2024-01-10T10:30:45;1.89;46.72
79698;SHT31;69168;42.708;23.286;2024-01-10T10:33:14;2.06;45.50
79698;SHT31;69168;42.708;23.286;2024-01-10T10:35:49;2.18;44.56
79698;SHT31;69168;42.708;23.286;2024-01-10T10:38:15;2.32;44.37
79698;SHT31;69168;42.708;23.286;2024-01-10T10:40:41;2.19;45.69
79698;SHT31;69168;42.708;23.286;2024-01-10T10:43:12;2.50;43.96
79698;SHT31;69168;42.708;23.286;2024-01-10T10:45:41;2.43;44.65
79698;SHT31;69168;42.708;23.286;2024-01-10T10:48:09;2.43;45.16
79698;SHT31;69168;42.708;23.286;2024-01-10T10:50:36;2.53;46.36
79698;SHT31;69168;42.708;23.286;2024-01-10T10:53:03;2.73;44.79
79698;SHT31;69168;42.708;23.286;2024-01-10T10:55:29;2.87;45.86
79698;SHT31;69168;42.708;23.286;2024-01-10T10:57:56;2.99;45.87
79698;SHT31;69168;42.708;23.286;2024-01-10T11:00:22;2.99;46.35
79698;SHT31;69168;42.708;23.286;2024-01-10T11:02:53;3.18;45.48
79698;SHT31;69168;42.708;23.286;2024-01-10T11:05:20;3.20;45.04
79698;SHT31;69168;42.708;23.286;2024-01-10T11:07:47;3.42;46.38
79698;SHT31;69168;42.708;23.286;2024-01-10T11:10:25;3.57;45.90
79698;SHT31;69168;42.708;23.286;2024-01-10T11:21:41;3.91;44.44
79698;SHT31;69168;42.708;23.286;2024-01-10T11:24:12;3.91;44.30
79698;SHT31;69168;42.708;23.286;2024-01-10T11:26:38;3.94;45.01
79698;SHT31;69168;42.708;23.286;2024-01-10T11:29:07;4.10;44.23
79698;SHT31;69168;42.708;23.286;2024-01-10T11:31:32;4.16;44.31
79698;SHT31;69168;42.708;23.286;2024-01-10T11:34:00;4.15;44.18
79698;SHT31;69168;42.708;23.286;2024-01-10T11:36:26;3.98;44.31
79698;SHT31;69168;42.708;23.286;2024-01-10T11:39:00;3.85;43.25
79698;SHT31;69168;42.708;23.286;2024-01-10T11:46:42;4.52;44.33
79698;SHT31;69168;42.708;23.286;2024-01-10T11:49:11;4.47;44.28
79698;SHT31;69168;42.708;23.286;2024-01-10T11:51:39;4.64;44.37
79698;SHT31;69168;42.708;23.286;2024-01-10T11:54:07;4.54;45.12
79698;SHT31;69168;42.708;23.286;2024-01-10T11:56:41;4.70;45.52
79698;SHT31;69168;42.708;23.286;2024-01-10T11:59:11;4.81;45.12
79698;SHT31;69168;42.708;23.286;2024-01-10T12:01:38;4.71;46.27
79698;SHT31;69168;42.708;23.286;2024-01-10T12:04:10;4.96;45.80
79698;SHT31;69168;42.708;23.286;2024-01-10T12:06:37;4.95;45.69
79698;SHT31;69168;42.708;23.286;2024-01-10T12:09:05;4.91;45.20
79698;SHT31;69168;42.708;23.286;2024-01-10T12:11:35;5.01;44.23
79698;SHT31;69168;42.708;23.286;2024-01-10T12:14:01;5.28;43.83
79698;SHT31;69168;42.708;23.286;2024-01-10T12:16:27;5.60;42.82
79698;SHT31;69168;42.708;23.286;2024-01-10T12:18:54;5.70;42.89
79698;SHT31;69168;42.708;23.286;2024-01-10T12:21:20;5.79;42.14
79698;SHT31;69168;42.708;23.286;2024-01-10T12:23:46;5.91;41.63
79698;SHT31;69168;42.708;23.286;2024-01-10T12:26:12;5.87;41.52
79698;SHT31;69168;42.708;23.286;2024-01-10T12:28:41;5.70;40.89
79698;SHT31;69168;42.708;23.286;2024-01-10T12:31:21;5.25;40.81
79698;SHT31;69168;42.708;23.286;2024-01-10T12:33:49;5.05;41.66
79698;SHT31;69168;42.708;23.286;2024-01-10T12:36:17;5.09;41.52
79698;SHT31;69168;42.708;23.286;2024-01-10T12:38:43;5.22;41.81
79698;SHT31;69168;42.708;23.286;2024-01-10T12:41:10;5.57;41.58
79698;SHT31;69168;42.708;23.286;2024-01-10T12:43:39;5.16;41.81
79698;SHT31;69168;42.708;23.286;2024-01-10T12:46:08;5.02;40.83
79698;SHT31;69168;42.708;23.286;2024-01-10T12:48:40;4.78;41.55
79698;SHT31;69168;42.708;23.286;2024-01-10T12:51:10;4.29;43.44
79698;SHT31;69168;42.708;23.286;2024-01-10T12:53:40;4.82;42.41
79698;SHT31;69168;42.708;23.286;2024-01-10T12:56:07;4.53;42.41
79698;SHT31;69168;42.708;23.286;2024-01-10T12:58:34;4.85;42.50
79698;SHT31;69168;42.708;23.286;2024-01-10T13:01:01;5.39;44.64
79698;SHT31;69168;42.708;23.286;2024-01-10T13:03:29;5.78;43.22
79698;SHT31;69168;42.708;23.286;2024-01-10T13:05:55;5.67;41.19
79698;SHT31;69168;42.708;23.286;2024-01-10T13:08:27;5.39;42.92
79698;SHT31;69168;42.708;23.286;2024-01-10T13:10:52;5.58;43.39
79698;SHT31;69168;42.708;23.286;2024-01-10T13:13:19;5.90;43.06
79698;SHT31;69168;42.708;23.286;2024-01-10T13:15:50;6.30;40.94
79698;SHT31;69168;42.708;23.286;2024-01-10T13:18:18;5.70;40.05
79698;SHT31;69168;42.708;23.286;2024-01-10T13:20:47;5.12;41.66
79698;SHT31;69168;42.708;23.286;2024-01-10T13:23:13;4.87;41.31
79698;SHT31;69168;42.708;23.286;2024-01-10T13:25:40;4.81;43.14
79698;SHT31;69168;42.708;23.286;2024-01-10T13:28:06;4.88;41.70
79698;SHT31;69168;42.708;23.286;2024-01-10T13:30:32;4.64;43.07
79698;SHT31;69168;42.708;23.286;2024-01-10T13:33:01;4.77;42.19
79698;SHT31;69168;42.708;23.286;2024-01-10T13:35:26;4.89;42.42
79698;SHT31;69168;42.708;23.286;2024-01-10T13:37:55;4.84;43.30
79698;SHT31;69168;42.708;23.286;2024-01-10T13:40:20;5.07;42.75
79698;SHT31;69168;42.708;23.286;2024-01-10T13:42:51;5.36;42.36
79698;SHT31;69168;42.708;23.286;2024-01-10T13:45:17;5.36;42.72
79698;SHT31;69168;42.708;23.286;2024-01-10T13:47:46;5.42;42.92
79698;SHT31;69168;42.708;23.286;2024-01-10T13:50:14;5.29;42.56
79698;SHT31;69168;42.708;23.286;2024-01-10T13:52:46;5.40;43.36
79698;SHT31;69168;42.708;23.286;2024-01-10T13:55:11;5.54;43.66
79698;SHT31;69168;42.708;23.286;2024-01-10T13:57:37;5.88;42.42
79698;SHT31;69168;42.708;23.286;2024-01-10T14:00:03;6.15;41.72
79698;SHT31;69168;42.708;23.286;2024-01-10T14:02:29;6.02;41.75
79698;SHT31;69168;42.708;23.286;2024-01-10T14:04:54;5.91;42.25
79698;SHT31;69168;42.708;23.286;2024-01-10T14:07:23;5.81;42.46
79698;SHT31;69168;42.708;23.286;2024-01-10T14:09:49;5.87;43.00
79698;SHT31;69168;42.708;23.286;2024-01-10T14:12:15;5.81;42.63
79698;SHT31;69168;42.708;23.286;2024-01-10T14:14:40;5.57;45.29
79698;SHT31;69168;42.708;23.286;2024-01-10T14:17:09;5.50;44.22
79698;SHT31;69168;42.708;23.286;2024-01-10T14:19:38;5.19;43.98
79698;SHT31;69168;42.708;23.286;2024-01-10T14:22:07;4.73;45.30
79698;SHT31;69168;42.708;23.286;2024-01-10T14:24:33;4.73;44.67
79698;SHT31;69168;42.708;23.286;2024-01-10T14:26:59;4.53;45.05
79698;SHT31;69168;42.708;23.286;2024-01-10T14:29:25;4.28;45.88
79698;SHT31;69168;42.708;23.286;2024-01-10T14:31:50;4.33;44.57
79698;SHT31;69168;42.708;23.286;2024-01-10T14:34:22;4.40;43.94
79698;SHT31;69168;42.708;23.286;2024-01-10T14:36:48;4.33;44.25
79698;SHT31;69168;42.708;23.286;2024-01-10T14:39:16;4.09;45.30
79698;SHT31;69168;42.708;23.286;2024-01-10T14:41:43;3.74;47.80
79698;SHT31;69168;42.708;23.286;2024-01-10T14:44:09;3.60;47.90
79698;SHT31;69168;42.708;23.286;2024-01-10T14:46:35;3.16;47.90
79698;SHT31;69168;42.708;23.286;2024-01-10T14:49:04;3.12;48.22
79698;SHT31;69168;42.708;23.286;2024-01-10T14:51:29;2.89;48.37
79698;SHT31;69168;42.708;23.286;2024-01-10T14:53:58;2.70;50.58
79698;SHT31;69168;42.708;23.286;2024-01-10T14:56:24;2.36;49.45
79698;SHT31;69168;42.708;23.286;2024-01-10T14:58:49;2.06;51.57
79698;SHT31;69168;42.708;23.286;2024-01-10T15:01:17;2.05;50.95
79698;SHT31;69168;42.708;23.286;2024-01-10T15:03:42;1.73;50.67
79698;SHT31;69168;42.708;23.286;2024-01-10T15:06:08;1.57;52.25
79698;SHT31;69168;42.708;23.286;2024-01-10T15:08:33;1.49;51.57
79698;SHT31;69168;42.708;23.286;2024-01-10T15:11:00;1.40;51.60
79698;SHT31;69168;42.708;23.286;2024-01-10T15:13:25;1.29;52.60
79698;SHT31;69168;42.708;23.286;2024-01-10T15:15:51;1.22;52.05
79698;SHT31;69168;42.708;23.286;2024-01-10T15:18:16;1.06;53.07
79698;SHT31;69168;42.708;23.286;2024-01-10T15:20:45;0.95;54.58
79698;SHT31;69168;42.708;23.286;2024-01-10T15:23:13;0.94;54.54
79698;SHT31;69168;42.708;23.286;2024-01-10T15:25:39;1.01;54.52
79698;SHT31;69168;42.708;23.286;2024-01-10T15:28:05;1.01;55.65
79698;SHT31;69168;42.708;23.286;2024-01-10T15:30:31;0.99;56.39
79698;SHT31;69168;42.708;23.286;2024-01-10T15:33:02;0.91;55.30
79698;SHT31;69168;42.708;23.286;2024-01-10T15:35:32;0.99;54.76
79698;SHT31;69168;42.708;23.286;2024-01-10T15:37:57;1.02;55.63